Timeline UpdatesTrip UpdatesNews PostsPvt PostsTravel TipsAdmin PostsConv PostsFollowed PostsChat RequestsBlog PostsPNR Posts

Disclaimer
Search
 
 
Fri Aug 22, 2014 19:17:26 ISTHomeTrainsΣChainsAtlasPNRForumGalleryNewsFAQTripsMembersLoginFeedback
No Recent News for this Train
Other Trains in the News **new
Latest...
.
Tue Sep 17, 2013 (05:07PM)
⇐ Return Journey: Train# 37927

37926/Katwa-Howrah Local

Sep 17 2013 (5:06PM)
Change Departure Station:
Change Arrival Station:
Post a Train Travel TipPost a Train Travel Tip **new
Post a Comment/Question/Picture/VideoPost a Comment/Question/Picture/Video
Pantry/Catering
✕ NO Pantry Car
✕ NO Catering
RSA - Rake Sharing
Rake/Coach Composition
Loco
News    PNR    Forum    Time-Table    Availability    Fare Chart    Map    Arr/Dep History    Trips    Gallery    ΣChains    X/O    Timeline    
Travel Time: 1h 3m    14 halts    Distance: 37 km    Avg Speed: 35 km/hr
Type: EMU - Kolkata
Zone: ER/Eastern
Departs @ 17:45
Platform# ???
SMTWTFS
Hooghly/HGY 
Arrives @ 18:48 (Avg 10m late)
Platform# ???
SMTWTFS
Kolkata Howrah Junction/HWH 

14 halts. 16 intermediate Stations between Hooghly and Kolkata Howrah Junction

Show ALL intermediate Stations  Show Old Time-Table

#CodeStation NameX/OArrivesAvgDepartsAvgHaltPFDay#KmSpeedElevZoneAddress
1KWAEKatwa Junction (5)  -15:00+9--1-106.96821mERDist - Bardhaman, West Bengal
2DHAEDainhat (4)  15:06+1315:07+211m--1-100.110219mERDaihaat Rd, West Bengal
3SHBASahebtala  15:09-15:10-1m--1-96.71918mERSahebtala, West Bengal
4AGAEAgradwip (2)  15:19+1815:20+261m--1-93.99818mERDist - Bardhaman, West Bengal
5PTAEPatuli (2)  15:23+2915:24+291m--1-89.07518mERDist - bardhaman, West Bengal
6BQYBelerhat  15:28-15:29-1m--1-84.08219mERJajneswarpur, West Bengal
7LKXLakshmipur (2)  15:31+2715:32+281m--1-81.39414mERDist - burdhaman, West Bengal
8MTFAMertala Phaleya  15:34-15:35-1m--1-78.19216mERMertala Phaleya, West Bengal
9PSAEPurbasthali (2)  15:37+2315:38+231m--1-75.17019mERDist - Bardhaman, West Bengal
10BFZBhandartikuri  15:40+2315:41+231m--1-72.810321mERDist - Bardhaman, West Bengal
11VSPRBishnupriya (1)  15:43-15:44-1m--1-69.33015mERDist - nadia, West Bengal
12NDAENabadwip Dham (3)  15:48+2115:50+222m--1-67.42515mERDist - Nadia, West Bengal
13KLNTKalinagar (1)  16:00+1016:01+141m11-63.2749mERDist - Nadia, West Bengal
14SMAESamudra Garh  16:04+1816:05+191m--1-59.57316mERDist - Bardhaman, West Bengal
15NDIMNandaigram Halt  16:08-16:09-1m--1-55.91015mERState Highway 6, West Bengal
16DTAEDhatrigram  16:28+616:29+91m--1-52.89116mERDhatrigram, West Bengal
17BGRABaghnapara (2)  16:32+1116:33+111m--1-48.24916mERKalna-Memari Rd, West Bengal
18ABKAAmbika Kalna (4)  16:38+816:39+81m--1-44.18512mERKalna, West Bengal
19GPAEGuptipara  16:44+1316:45+131m--1-37.06314mERGuptipara Railway Station, West Bengal
20BHLABehula  16:47-16:48-1m--1-34.97316mERDist - Hooghly, West Bengal
21SOAESomra Bazar (2)  16:52-16:53-1m--1-30.18613mERState Highway 6, West Bengal
22BGAEBalagarh  16:55-16:56-1m--1-27.21913mERBalagarh, West Bengal
23JITJirat (3)  17:03+1117:04+111m--1-25.012615mERdist - hooghly, West Bengal
24KMAEKhamargachhi  17:07+1417:08+141m--1-18.75914mERKhamargachi, West Bengal
25DMLEDumurdaha  17:10-17:11-1m--1-16.79815mERDumurdahadham, West Bengal
26KJUKuntighat  17:13-17:14-1m--1-13.56717mERKuntighat Railway Station, West Bengal
27TBAETribeni  17:17+1317:18+131m--1-10.17416mERTribeni, West Bengal
28BSAEBansh Baria  17:21+1717:22+171m--1-6.41413mERBansberia, West Bengal
29BDCBandel Junction (7)  17:41+417:43+52m--1-2.011814mERdist - HOOGHLY, West Bengal
30HGY»Hooghly (3)»  17:44-17:45-1m--10.05414mERDist - Hooghly, West Bengal
31CNSChuchura (3)  17:47-17:48-1m--11.89015mERDist - HOOGHLY - 712102, West Bengal
32CGRChandan Nagar (3)  17:50+1317:51+131m--14.87116mERDist -HOOGHLY - 712136, West Bengal
33MUUMankundu (3)  17:53-17:54-1m--17.213313mERChandannagar, West Bengal
34BHRBhadreshwar (3)  17:55+1717:56+171m--19.45614mERBhadreswar, West Bengal
35BBAEBaidyabati (3)  18:00-18:01-1m--113.12813mERBaidyabati, West Bengal
36SHESeoraphuli Junction (6)  18:06+1518:07+151m--115.47613mERBaidyabati, West Bengal
37SRPSerampore (4)  18:09+1718:10+171m--118.06411mERdist - hooghly, West Bengal
38RISRishra (3)  18:13+018:14+01m--121.24211mERRishra, West Bengal
39KOGKonnagar (3)  18:18+1418:19+141m--124.011510mERDist: Howrah, West Bengal
40HMZHind Motor (3)  18:20-18:21-1m--125.9549mERHindmotor, West Bengal
41UPAUttarpara (3)  18:23-18:24-1m--127.7749mERDist - Hooghly, West Bengal
42BLYBally (6)  18:25+018:26+01m--129.01218mERDist - Howrah, West Bengal
43BEQBelur (5)  18:27+1818:28+181m--131.0508mERHowrah, West Bengal
44LLHLiluah (5)  18:30+1518:31+151m--132.61610mERHowrah, West Bengal
45HWH•Kolkata Howrah Junction (23)•  18:48+10---137.2-10mERHowrah 711101, West Bengal
Scroll to Top
Scroll to Bottom